sensor_id;sensor_type;location;lat;lon;timestamp;P1;durP1;ratioP1;P2;durP2;ratioP2
7306;SDS011;3694;48.732;9.248;2023-07-31T00:00:37;2.67;;;1.30;;
7306;SDS011;3694;48.732;9.248;2023-07-31T00:03:03;1.83;;;1.27;;
7306;SDS011;3694;48.732;9.248;2023-07-31T00:05:28;2.40;;;1.50;;
7306;SDS011;3694;48.732;9.248;2023-07-31T00:07:54;2.13;;;1.40;;
7306;SDS011;3694;48.732;9.248;2023-07-31T00:10:20;2.53;;;1.80;;
7306;SDS011;3694;48.732;9.248;2023-07-31T00:12:46;2.97;;;1.60;;
7306;SDS011;3694;48.732;9.248;2023-07-31T00:15:12;3.50;;;1.37;;
7306;SDS011;3694;48.732;9.248;2023-07-31T00:17:39;1.50;;;1.40;;
7306;SDS011;3694;48.732;9.248;2023-07-31T00:20:04;1.87;;;1.50;;
7306;SDS011;3694;48.732;9.248;2023-07-31T00:22:30;1.70;;;1.53;;
7306;SDS011;3694;48.732;9.248;2023-07-31T00:24:56;2.47;;;1.90;;
7306;SDS011;3694;48.732;9.248;2023-07-31T00:27:22;1.47;;;1.33;;
7306;SDS011;3694;48.732;9.248;2023-07-31T00:29:48;1.77;;;1.67;;
7306;SDS011;3694;48.732;9.248;2023-07-31T00:32:13;1.93;;;1.83;;
7306;SDS011;3694;48.732;9.248;2023-07-31T00:34:39;1.63;;;1.53;;
7306;SDS011;3694;48.732;9.248;2023-07-31T00:37:05;2.13;;;1.90;;
7306;SDS011;3694;48.732;9.248;2023-07-31T00:39:33;2.70;;;1.57;;
7306;SDS011;3694;48.732;9.248;2023-07-31T00:41:59;2.33;;;1.57;;
7306;SDS011;3694;48.732;9.248;2023-07-31T00:44:25;2.57;;;1.53;;
7306;SDS011;3694;48.732;9.248;2023-07-31T00:46:50;1.73;;;1.40;;
7306;SDS011;3694;48.732;9.248;2023-07-31T00:49:16;1.87;;;1.50;;
7306;SDS011;3694;48.732;9.248;2023-07-31T00:51:41;2.33;;;1.40;;
7306;SDS011;3694;48.732;9.248;2023-07-31T00:54:07;2.00;;;1.70;;
7306;SDS011;3694;48.732;9.248;2023-07-31T00:56:33;4.20;;;2.17;;
7306;SDS011;3694;48.732;9.248;2023-07-31T00:58:59;2.27;;;1.30;;
7306;SDS011;3694;48.732;9.248;2023-07-31T01:01:24;2.60;;;1.60;;
7306;SDS011;3694;48.732;9.248;2023-07-31T01:03:50;1.83;;;1.60;;
7306;SDS011;3694;48.732;9.248;2023-07-31T01:09:12;1.73;;;1.60;;
7306;SDS011;3694;48.732;9.248;2023-07-31T01:12:05;2.93;;;1.50;;
7306;SDS011;3694;48.732;9.248;2023-07-31T01:14:33;2.63;;;1.67;;
7306;SDS011;3694;48.732;9.248;2023-07-31T01:16:59;2.10;;;1.73;;
7306;SDS011;3694;48.732;9.248;2023-07-31T01:19:25;2.07;;;1.73;;
7306;SDS011;3694;48.732;9.248;2023-07-31T01:22:11;1.73;;;1.33;;
7306;SDS011;3694;48.732;9.248;2023-07-31T01:25:16;2.20;;;1.50;;
7306;SDS011;3694;48.732;9.248;2023-07-31T01:28:07;4.03;;;1.63;;
7306;SDS011;3694;48.732;9.248;2023-07-31T01:30:37;2.67;;;1.57;;
7306;SDS011;3694;48.732;9.248;2023-07-31T01:33:08;1.90;;;1.60;;
7306;SDS011;3694;48.732;9.248;2023-07-31T01:35:34;1.47;;;1.37;;
7306;SDS011;3694;48.732;9.248;2023-07-31T01:38:01;1.60;;;1.07;;
7306;SDS011;3694;48.732;9.248;2023-07-31T01:40:27;2.00;;;1.77;;
7306;SDS011;3694;48.732;9.248;2023-07-31T01:42:52;3.23;;;1.70;;
7306;SDS011;3694;48.732;9.248;2023-07-31T01:45:18;3.37;;;1.30;;
7306;SDS011;3694;48.732;9.248;2023-07-31T01:47:43;1.90;;;1.70;;
7306;SDS011;3694;48.732;9.248;2023-07-31T01:50:09;3.33;;;1.67;;
7306;SDS011;3694;48.732;9.248;2023-07-31T01:52:35;2.03;;;1.40;;
7306;SDS011;3694;48.732;9.248;2023-07-31T01:55:00;1.80;;;1.63;;
7306;SDS011;3694;48.732;9.248;2023-07-31T01:57:26;2.63;;;1.60;;
7306;SDS011;3694;48.732;9.248;2023-07-31T01:59:51;1.97;;;1.50;;
7306;SDS011;3694;48.732;9.248;2023-07-31T02:02:18;1.80;;;1.50;;
7306;SDS011;3694;48.732;9.248;2023-07-31T02:04:44;1.57;;;1.47;;
7306;SDS011;3694;48.732;9.248;2023-07-31T02:07:10;2.40;;;1.77;;
7306;SDS011;3694;48.732;9.248;2023-07-31T02:09:36;2.83;;;1.50;;
7306;SDS011;3694;48.732;9.248;2023-07-31T02:12:01;1.90;;;1.60;;
7306;SDS011;3694;48.732;9.248;2023-07-31T02:14:27;3.13;;;1.77;;
7306;SDS011;3694;48.732;9.248;2023-07-31T02:16:52;4.20;;;1.80;;
7306;SDS011;3694;48.732;9.248;2023-07-31T02:19:18;1.57;;;1.47;;
7306;SDS011;3694;48.732;9.248;2023-07-31T02:21:43;3.63;;;1.50;;
7306;SDS011;3694;48.732;9.248;2023-07-31T02:24:09;1.73;;;1.47;;
7306;SDS011;3694;48.732;9.248;2023-07-31T02:26:35;2.53;;;1.70;;
7306;SDS011;3694;48.732;9.248;2023-07-31T02:29:01;2.40;;;1.73;;
7306;SDS011;3694;48.732;9.248;2023-07-31T02:31:26;1.90;;;1.40;;
7306;SDS011;3694;48.732;9.248;2023-07-31T02:33:52;1.97;;;1.87;;
7306;SDS011;3694;48.732;9.248;2023-07-31T02:36:17;1.60;;;1.30;;
7306;SDS011;3694;48.732;9.248;2023-07-31T02:38:43;1.67;;;1.57;;
7306;SDS011;3694;48.732;9.248;2023-07-31T02:41:08;4.17;;;1.50;;
7306;SDS011;3694;48.732;9.248;2023-07-31T02:43:34;3.90;;;1.77;;
7306;SDS011;3694;48.732;9.248;2023-07-31T02:45:59;2.77;;;1.57;;
7306;SDS011;3694;48.732;9.248;2023-07-31T02:48:25;1.80;;;1.70;;
7306;SDS011;3694;48.732;9.248;2023-07-31T02:50:50;1.97;;;1.50;;
7306;SDS011;3694;48.732;9.248;2023-07-31T02:53:16;2.00;;;1.50;;
7306;SDS011;3694;48.732;9.248;2023-07-31T02:55:41;2.20;;;1.63;;
7306;SDS011;3694;48.732;9.248;2023-07-31T02:58:07;2.17;;;1.50;;
7306;SDS011;3694;48.732;9.248;2023-07-31T03:00:32;1.93;;;1.60;;
7306;SDS011;3694;48.732;9.248;2023-07-31T03:02:58;1.53;;;1.10;;
7306;SDS011;3694;48.732;9.248;2023-07-31T03:05:23;1.93;;;1.70;;
7306;SDS011;3694;48.732;9.248;2023-07-31T03:07:49;3.43;;;1.80;;
7306;SDS011;3694;48.732;9.248;2023-07-31T03:10:15;1.87;;;1.73;;
7306;SDS011;3694;48.732;9.248;2023-07-31T03:12:40;1.83;;;1.53;;
7306;SDS011;3694;48.732;9.248;2023-07-31T03:15:06;3.90;;;1.87;;
7306;SDS011;3694;48.732;9.248;2023-07-31T03:17:32;2.27;;;1.50;;
7306;SDS011;3694;48.732;9.248;2023-07-31T03:19:58;2.90;;;1.87;;
7306;SDS011;3694;48.732;9.248;2023-07-31T03:22:23;2.47;;;1.47;;
7306;SDS011;3694;48.732;9.248;2023-07-31T03:24:49;2.00;;;1.77;;
7306;SDS011;3694;48.732;9.248;2023-07-31T03:27:14;2.57;;;1.63;;
7306;SDS011;3694;48.732;9.248;2023-07-31T03:29:40;1.67;;;1.57;;
7306;SDS011;3694;48.732;9.248;2023-07-31T03:32:05;4.13;;;1.87;;
7306;SDS011;3694;48.732;9.248;2023-07-31T03:34:31;1.90;;;1.70;;
7306;SDS011;3694;48.732;9.248;2023-07-31T03:36:57;3.90;;;2.30;;
7306;SDS011;3694;48.732;9.248;2023-07-31T03:39:23;3.17;;;2.87;;
7306;SDS011;3694;48.732;9.248;2023-07-31T03:41:48;3.63;;;2.30;;
7306;SDS011;3694;48.732;9.248;2023-07-31T03:44:17;1.87;;;1.60;;
7306;SDS011;3694;48.732;9.248;2023-07-31T03:46:42;1.60;;;1.50;;
7306;SDS011;3694;48.732;9.248;2023-07-31T03:49:08;2.50;;;1.67;;
7306;SDS011;3694;48.732;9.248;2023-07-31T03:51:33;2.47;;;1.53;;
7306;SDS011;3694;48.732;9.248;2023-07-31T03:53:59;2.77;;;1.63;;
7306;SDS011;3694;48.732;9.248;2023-07-31T03:56:25;1.87;;;1.70;;
7306;SDS011;3694;48.732;9.248;2023-07-31T03:58:50;2.37;;;1.87;;
7306;SDS011;3694;48.732;9.248;2023-07-31T04:01:15;3.00;;;1.87;;
7306;SDS011;3694;48.732;9.248;2023-07-31T04:03:41;2.27;;;1.80;;
7306;SDS011;3694;48.732;9.248;2023-07-31T04:06:07;2.67;;;2.10;;
7306;SDS011;3694;48.732;9.248;2023-07-31T04:08:32;3.00;;;1.97;;
7306;SDS011;3694;48.732;9.248;2023-07-31T04:10:58;2.90;;;1.73;;
7306;SDS011;3694;48.732;9.248;2023-07-31T04:13:23;2.23;;;2.00;;
7306;SDS011;3694;48.732;9.248;2023-07-31T04:15:49;3.27;;;2.07;;
7306;SDS011;3694;48.732;9.248;2023-07-31T04:18:15;1.77;;;1.67;;
7306;SDS011;3694;48.732;9.248;2023-07-31T04:20:41;1.77;;;1.67;;
7306;SDS011;3694;48.732;9.248;2023-07-31T04:23:07;2.60;;;1.73;;
7306;SDS011;3694;48.732;9.248;2023-07-31T04:25:32;2.00;;;1.80;;
7306;SDS011;3694;48.732;9.248;2023-07-31T04:27:59;2.10;;;1.90;;
7306;SDS011;3694;48.732;9.248;2023-07-31T04:30:25;2.50;;;2.30;;
7306;SDS011;3694;48.732;9.248;2023-07-31T04:32:51;2.13;;;1.90;;
7306;SDS011;3694;48.732;9.248;2023-07-31T04:35:16;1.40;;;1.30;;
7306;SDS011;3694;48.732;9.248;2023-07-31T04:37:42;1.77;;;1.63;;
7306;SDS011;3694;48.732;9.248;2023-07-31T04:40:07;1.70;;;1.53;;
7306;SDS011;3694;48.732;9.248;2023-07-31T04:42:33;2.23;;;1.90;;
7306;SDS011;3694;48.732;9.248;2023-07-31T04:44:59;2.37;;;1.53;;
7306;SDS011;3694;48.732;9.248;2023-07-31T04:47:25;2.30;;;1.47;;
7306;SDS011;3694;48.732;9.248;2023-07-31T04:49:50;2.07;;;1.43;;
7306;SDS011;3694;48.732;9.248;2023-07-31T04:52:16;2.30;;;2.07;;
7306;SDS011;3694;48.732;9.248;2023-07-31T04:54:41;92.87;;;64.60;;
7306;SDS011;3694;48.732;9.248;2023-07-31T04:57:07;2.03;;;1.80;;
7306;SDS011;3694;48.732;9.248;2023-07-31T04:59:32;2.20;;;1.40;;
7306;SDS011;3694;48.732;9.248;2023-07-31T05:01:58;2.57;;;1.90;;
7306;SDS011;3694;48.732;9.248;2023-07-31T05:04:23;2.87;;;1.70;;
7306;SDS011;3694;48.732;9.248;2023-07-31T05:06:49;2.27;;;1.53;;
7306;SDS011;3694;48.732;9.248;2023-07-31T05:09:15;1.30;;;1.20;;
7306;SDS011;3694;48.732;9.248;2023-07-31T05:11:41;1.87;;;1.30;;
7306;SDS011;3694;48.732;9.248;2023-07-31T05:14:07;1.70;;;1.20;;
7306;SDS011;3694;48.732;9.248;2023-07-31T05:16:33;1.50;;;1.40;;
7306;SDS011;3694;48.732;9.248;2023-07-31T05:18:59;1.50;;;1.37;;
7306;SDS011;3694;48.732;9.248;2023-07-31T05:21:24;3.57;;;1.97;;
7306;SDS011;3694;48.732;9.248;2023-07-31T05:23:50;2.50;;;1.60;;
7306;SDS011;3694;48.732;9.248;2023-07-31T05:26:16;2.27;;;1.60;;
7306;SDS011;3694;48.732;9.248;2023-07-31T05:28:41;4.20;;;1.70;;
7306;SDS011;3694;48.732;9.248;2023-07-31T05:31:07;2.20;;;1.53;;
7306;SDS011;3694;48.732;9.248;2023-07-31T05:33:32;1.67;;;1.53;;
7306;SDS011;3694;48.732;9.248;2023-07-31T05:35:58;1.53;;;0.93;;
7306;SDS011;3694;48.732;9.248;2023-07-31T05:38:23;1.50;;;1.40;;
7306;SDS011;3694;48.732;9.248;2023-07-31T05:40:49;1.40;;;1.20;;
7306;SDS011;3694;48.732;9.248;2023-07-31T05:43:14;2.60;;;1.37;;
7306;SDS011;3694;48.732;9.248;2023-07-31T05:45:41;2.37;;;1.50;;
7306;SDS011;3694;48.732;9.248;2023-07-31T05:48:07;1.53;;;1.43;;
7306;SDS011;3694;48.732;9.248;2023-07-31T05:50:33;2.30;;;1.50;;
7306;SDS011;3694;48.732;9.248;2023-07-31T05:52:58;1.37;;;1.07;;
7306;SDS011;3694;48.732;9.248;2023-07-31T05:55:24;1.77;;;1.30;;
7306;SDS011;3694;48.732;9.248;2023-07-31T05:57:52;1.97;;;1.17;;
7306;SDS011;3694;48.732;9.248;2023-07-31T06:00:17;2.27;;;1.13;;
7306;SDS011;3694;48.732;9.248;2023-07-31T06:02:43;1.90;;;1.10;;
7306;SDS011;3694;48.732;9.248;2023-07-31T06:05:09;3.27;;;1.53;;
7306;SDS011;3694;48.732;9.248;2023-07-31T06:07:35;1.57;;;1.43;;
7306;SDS011;3694;48.732;9.248;2023-07-31T06:10:00;1.50;;;1.10;;
7306;SDS011;3694;48.732;9.248;2023-07-31T06:12:28;3.10;;;1.70;;
7306;SDS011;3694;48.732;9.248;2023-07-31T06:14:54;1.33;;;1.20;;
7306;SDS011;3694;48.732;9.248;2023-07-31T06:17:19;1.40;;;1.17;;
7306;SDS011;3694;48.732;9.248;2023-07-31T06:19:46;1.30;;;1.00;;
7306;SDS011;3694;48.732;9.248;2023-07-31T06:22:11;2.57;;;1.17;;
7306;SDS011;3694;48.732;9.248;2023-07-31T06:24:37;1.23;;;1.00;;
7306;SDS011;3694;48.732;9.248;2023-07-31T06:27:03;1.33;;;1.13;;
7306;SDS011;3694;48.732;9.248;2023-07-31T06:29:29;2.47;;;1.07;;
7306;SDS011;3694;48.732;9.248;2023-07-31T06:31:55;3.40;;;2.10;;
7306;SDS011;3694;48.732;9.248;2023-07-31T06:34:20;1.27;;;1.00;;
7306;SDS011;3694;48.732;9.248;2023-07-31T06:36:46;73.10;;;18.17;;
7306;SDS011;3694;48.732;9.248;2023-07-31T06:39:11;13.70;;;13.00;;
7306;SDS011;3694;48.732;9.248;2023-07-31T06:41:37;2.10;;;1.13;;
7306;SDS011;3694;48.732;9.248;2023-07-31T06:44:03;2.50;;;2.30;;
7306;SDS011;3694;48.732;9.248;2023-07-31T06:46:29;2.00;;;1.15;;
7306;SDS011;3694;48.732;9.248;2023-07-31T06:48:55;1.02;;;0.93;;
7306;SDS011;3694;48.732;9.248;2023-07-31T06:51:21;1.67;;;1.15;;
7306;SDS011;3694;48.732;9.248;2023-07-31T06:53:46;1.43;;;1.00;;
7306;SDS011;3694;48.732;9.248;2023-07-31T06:56:12;1.67;;;1.20;;
7306;SDS011;3694;48.732;9.248;2023-07-31T06:58:37;1.13;;;1.03;;
7306;SDS011;3694;48.732;9.248;2023-07-31T07:01:03;1.40;;;1.00;;
7306;SDS011;3694;48.732;9.248;2023-07-31T07:03:29;1.70;;;1.10;;
7306;SDS011;3694;48.732;9.248;2023-07-31T07:05:54;2.10;;;1.10;;
7306;SDS011;3694;48.732;9.248;2023-07-31T07:08:20;2.20;;;1.50;;
7306;SDS011;3694;48.732;9.248;2023-07-31T07:10:46;2.23;;;1.10;;
7306;SDS011;3694;48.732;9.248;2023-07-31T07:13:12;2.70;;;0.90;;
7306;SDS011;3694;48.732;9.248;2023-07-31T07:15:38;3.77;;;1.50;;
7306;SDS011;3694;48.732;9.248;2023-07-31T07:18:04;1.70;;;1.10;;
7306;SDS011;3694;48.732;9.248;2023-07-31T07:20:30;2.70;;;1.17;;
7306;SDS011;3694;48.732;9.248;2023-07-31T07:22:56;4.00;;;1.33;;
7306;SDS011;3694;48.732;9.248;2023-07-31T07:25:21;2.47;;;1.33;;
7306;SDS011;3694;48.732;9.248;2023-07-31T07:27:47;3.03;;;1.70;;
7306;SDS011;3694;48.732;9.248;2023-07-31T07:30:12;2.30;;;1.20;;
7306;SDS011;3694;48.732;9.248;2023-07-31T07:32:39;1.47;;;1.27;;
7306;SDS011;3694;48.732;9.248;2023-07-31T07:35:05;2.90;;;1.20;;
7306;SDS011;3694;48.732;9.248;2023-07-31T07:37:31;1.80;;;1.23;;
7306;SDS011;3694;48.732;9.248;2023-07-31T07:39:57;3.70;;;1.40;;
7306;SDS011;3694;48.732;9.248;2023-07-31T07:42:22;2.88;;;1.27;;
7306;SDS011;3694;48.732;9.248;2023-07-31T07:44:48;2.00;;;1.27;;
7306;SDS011;3694;48.732;9.248;2023-07-31T07:47:14;3.00;;;1.40;;
7306;SDS011;3694;48.732;9.248;2023-07-31T07:49:39;9.47;;;8.90;;
7306;SDS011;3694;48.732;9.248;2023-07-31T07:52:05;2.77;;;1.43;;
7306;SDS011;3694;48.732;9.248;2023-07-31T07:54:31;2.17;;;1.30;;
7306;SDS011;3694;48.732;9.248;2023-07-31T07:56:57;3.00;;;1.53;;
7306;SDS011;3694;48.732;9.248;2023-07-31T07:59:23;3.07;;;1.70;;
7306;SDS011;3694;48.732;9.248;2023-07-31T08:01:48;2.30;;;1.47;;
7306;SDS011;3694;48.732;9.248;2023-07-31T08:04:14;2.00;;;1.30;;
7306;SDS011;3694;48.732;9.248;2023-07-31T08:06:40;1.40;;;1.23;;
7306;SDS011;3694;48.732;9.248;2023-07-31T08:09:05;2.95;;;1.70;;
7306;SDS011;3694;48.732;9.248;2023-07-31T08:11:32;1.42;;;1.27;;
7306;SDS011;3694;48.732;9.248;2023-07-31T08:13:57;3.53;;;1.48;;
7306;SDS011;3694;48.732;9.248;2023-07-31T08:16:23;4.30;;;1.40;;
7306;SDS011;3694;48.732;9.248;2023-07-31T08:18:48;1.88;;;1.33;;
7306;SDS011;3694;48.732;9.248;2023-07-31T08:21:14;1.37;;;1.10;;
7306;SDS011;3694;48.732;9.248;2023-07-31T08:23:40;3.07;;;1.50;;
7306;SDS011;3694;48.732;9.248;2023-07-31T08:26:05;1.63;;;1.35;;
7306;SDS011;3694;48.732;9.248;2023-07-31T08:28:31;3.50;;;1.73;;
7306;SDS011;3694;48.732;9.248;2023-07-31T08:30:56;2.05;;;1.50;;
7306;SDS011;3694;48.732;9.248;2023-07-31T08:33:22;2.05;;;1.20;;
7306;SDS011;3694;48.732;9.248;2023-07-31T08:35:47;2.65;;;1.63;;
7306;SDS011;3694;48.732;9.248;2023-07-31T08:38:13;3.88;;;1.63;;
7306;SDS011;3694;48.732;9.248;2023-07-31T08:40:39;1.95;;;1.55;;
7306;SDS011;3694;48.732;9.248;2023-07-31T08:43:05;2.83;;;1.50;;
7306;SDS011;3694;48.732;9.248;2023-07-31T08:45:30;1.95;;;1.75;;
7306;SDS011;3694;48.732;9.248;2023-07-31T08:47:57;2.05;;;1.33;;
7306;SDS011;3694;48.732;9.248;2023-07-31T08:50:24;1.70;;;1.20;;
7306;SDS011;3694;48.732;9.248;2023-07-31T08:52:50;1.48;;;1.23;;
7306;SDS011;3694;48.732;9.248;2023-07-31T08:55:17;1.42;;;1.33;;
7306;SDS011;3694;48.732;9.248;2023-07-31T08:57:48;1.73;;;1.52;;
7306;SDS011;3694;48.732;9.248;2023-07-31T09:00:15;2.17;;;1.75;;
7306;SDS011;3694;48.732;9.248;2023-07-31T09:02:43;1.88;;;1.55;;
7306;SDS011;3694;48.732;9.248;2023-07-31T09:05:11;3.83;;;1.90;;
7306;SDS011;3694;48.732;9.248;2023-07-31T09:07:37;3.22;;;1.50;;
7306;SDS011;3694;48.732;9.248;2023-07-31T09:10:04;2.28;;;1.70;;
7306;SDS011;3694;48.732;9.248;2023-07-31T09:12:30;2.38;;;1.58;;
7306;SDS011;3694;48.732;9.248;2023-07-31T09:14:56;2.58;;;1.52;;
7306;SDS011;3694;48.732;9.248;2023-07-31T09:17:29;2.65;;;1.70;;
7306;SDS011;3694;48.732;9.248;2023-07-31T09:22:44;1.88;;;1.38;;
7306;SDS011;3694;48.732;9.248;2023-07-31T09:25:14;2.42;;;1.83;;
7306;SDS011;3694;48.732;9.248;2023-07-31T09:27:50;2.03;;;1.48;;
7306;SDS011;3694;48.732;9.248;2023-07-31T09:30:19;2.88;;;1.50;;
7306;SDS011;3694;48.732;9.248;2023-07-31T09:32:46;2.28;;;1.58;;
7306;SDS011;3694;48.732;9.248;2023-07-31T09:38:14;2.40;;;1.67;;
7306;SDS011;3694;48.732;9.248;2023-07-31T09:40:41;1.93;;;1.50;;
7306;SDS011;3694;48.732;9.248;2023-07-31T09:43:26;2.13;;;1.90;;
7306;SDS011;3694;48.732;9.248;2023-07-31T09:45:56;1.97;;;1.60;;
7306;SDS011;3694;48.732;9.248;2023-07-31T09:48:22;2.87;;;1.77;;
7306;SDS011;3694;48.732;9.248;2023-07-31T09:50:51;1.90;;;1.50;;
7306;SDS011;3694;48.732;9.248;2023-07-31T09:53:17;2.63;;;1.70;;
7306;SDS011;3694;48.732;9.248;2023-07-31T09:55:42;5.70;;;1.60;;
7306;SDS011;3694;48.732;9.248;2023-07-31T09:58:09;2.70;;;1.83;;
7306;SDS011;3694;48.732;9.248;2023-07-31T10:00:36;2.63;;;1.67;;
7306;SDS011;3694;48.732;9.248;2023-07-31T10:03:04;1.97;;;1.50;;
7306;SDS011;3694;48.732;9.248;2023-07-31T10:05:35;2.30;;;1.80;;
7306;SDS011;3694;48.732;9.248;2023-07-31T10:08:15;1.90;;;1.47;;
7306;SDS011;3694;48.732;9.248;2023-07-31T10:10:43;2.27;;;1.40;;
7306;SDS011;3694;48.732;9.248;2023-07-31T10:13:09;2.27;;;1.70;;
7306;SDS011;3694;48.732;9.248;2023-07-31T10:15:36;2.83;;;1.67;;
7306;SDS011;3694;48.732;9.248;2023-07-31T10:18:02;3.10;;;1.80;;
7306;SDS011;3694;48.732;9.248;2023-07-31T10:20:30;1.90;;;1.50;;
7306;SDS011;3694;48.732;9.248;2023-07-31T10:22:57;2.60;;;1.77;;
7306;SDS011;3694;48.732;9.248;2023-07-31T10:25:24;2.50;;;1.50;;
7306;SDS011;3694;48.732;9.248;2023-07-31T10:27:51;2.80;;;2.13;;
7306;SDS011;3694;48.732;9.248;2023-07-31T10:30:20;2.92;;;1.92;;
7306;SDS011;3694;48.732;9.248;2023-07-31T10:32:49;1.40;;;1.30;;
7306;SDS011;3694;48.732;9.248;2023-07-31T10:35:17;2.10;;;1.73;;
7306;SDS011;3694;48.732;9.248;2023-07-31T10:37:43;3.10;;;2.10;;
7306;SDS011;3694;48.732;9.248;2023-07-31T10:40:10;3.17;;;1.93;;
7306;SDS011;3694;48.732;9.248;2023-07-31T10:42:45;4.07;;;1.70;;
7306;SDS011;3694;48.732;9.248;2023-07-31T10:45:23;3.33;;;1.93;;
7306;SDS011;3694;48.732;9.248;2023-07-31T10:48:03;3.57;;;1.90;;
7306;SDS011;3694;48.732;9.248;2023-07-31T10:50:38;3.73;;;1.70;;
7306;SDS011;3694;48.732;9.248;2023-07-31T10:53:22;4.73;;;1.90;;
7306;SDS011;3694;48.732;9.248;2023-07-31T10:55:58;3.70;;;1.70;;
7306;SDS011;3694;48.732;9.248;2023-07-31T10:58:29;3.17;;;1.60;;
7306;SDS011;3694;48.732;9.248;2023-07-31T11:00:57;3.47;;;1.87;;
7306;SDS011;3694;48.732;9.248;2023-07-31T11:03:40;3.27;;;2.03;;
7306;SDS011;3694;48.732;9.248;2023-07-31T11:06:10;3.37;;;1.70;;
7306;SDS011;3694;48.732;9.248;2023-07-31T11:08:41;2.33;;;1.90;;
7306;SDS011;3694;48.732;9.248;2023-07-31T11:11:09;3.87;;;2.13;;
7306;SDS011;3694;48.732;9.248;2023-07-31T11:13:41;3.20;;;1.90;;
7306;SDS011;3694;48.732;9.248;2023-07-31T11:16:09;2.90;;;2.47;;
7306;SDS011;3694;48.732;9.248;2023-07-31T11:18:35;2.87;;;1.70;;
7306;SDS011;3694;48.732;9.248;2023-07-31T11:21:04;2.60;;;2.00;;
7306;SDS011;3694;48.732;9.248;2023-07-31T11:23:30;2.60;;;1.97;;
7306;SDS011;3694;48.732;9.248;2023-07-31T11:25:59;1.50;;;1.40;;
7306;SDS011;3694;48.732;9.248;2023-07-31T11:28:25;2.50;;;1.83;;
7306;SDS011;3694;48.732;9.248;2023-07-31T11:30:50;2.57;;;1.83;;
7306;SDS011;3694;48.732;9.248;2023-07-31T11:33:16;1.60;;;1.50;;
7306;SDS011;3694;48.732;9.248;2023-07-31T11:35:46;1.67;;;1.33;;
7306;SDS011;3694;48.732;9.248;2023-07-31T11:40:56;1.80;;;1.60;;
7306;SDS011;3694;48.732;9.248;2023-07-31T11:43:27;3.10;;;1.83;;
7306;SDS011;3694;48.732;9.248;2023-07-31T11:45:57;2.10;;;1.60;;
7306;SDS011;3694;48.732;9.248;2023-07-31T11:50:49;5.20;;;1.90;;
7306;SDS011;3694;48.732;9.248;2023-07-31T11:53:16;2.93;;;1.77;;
7306;SDS011;3694;48.732;9.248;2023-07-31T11:55:45;2.73;;;1.53;;
7306;SDS011;3694;48.732;9.248;2023-07-31T11:58:12;3.53;;;1.53;;
7306;SDS011;3694;48.732;9.248;2023-07-31T12:00:40;3.40;;;2.00;;
7306;SDS011;3694;48.732;9.248;2023-07-31T12:03:06;2.53;;;1.80;;
7306;SDS011;3694;48.732;9.248;2023-07-31T12:05:32;2.43;;;1.60;;
7306;SDS011;3694;48.732;9.248;2023-07-31T12:07:57;2.73;;;1.60;;
7306;SDS011;3694;48.732;9.248;2023-07-31T12:15:55;2.97;;;1.87;;
7306;SDS011;3694;48.732;9.248;2023-07-31T12:18:22;3.40;;;1.87;;
7306;SDS011;3694;48.732;9.248;2023-07-31T12:20:49;2.23;;;1.70;;
7306;SDS011;3694;48.732;9.248;2023-07-31T12:23:30;2.97;;;1.70;;
7306;SDS011;3694;48.732;9.248;2023-07-31T12:26:00;2.87;;;2.10;;
7306;SDS011;3694;48.732;9.248;2023-07-31T12:31:27;1.77;;;1.50;;
7306;SDS011;3694;48.732;9.248;2023-07-31T12:33:54;3.43;;;1.83;;
7306;SDS011;3694;48.732;9.248;2023-07-31T12:36:22;4.10;;;1.70;;
7306;SDS011;3694;48.732;9.248;2023-07-31T12:38:52;2.40;;;1.80;;
7306;SDS011;3694;48.732;9.248;2023-07-31T12:41:17;3.83;;;1.87;;
7306;SDS011;3694;48.732;9.248;2023-07-31T12:43:44;3.13;;;1.90;;
7306;SDS011;3694;48.732;9.248;2023-07-31T12:46:10;2.27;;;1.70;;
7306;SDS011;3694;48.732;9.248;2023-07-31T12:48:36;3.03;;;2.10;;
7306;SDS011;3694;48.732;9.248;2023-07-31T12:51:03;3.90;;;2.30;;
7306;SDS011;3694;48.732;9.248;2023-07-31T12:53:28;3.17;;;2.03;;
7306;SDS011;3694;48.732;9.248;2023-07-31T12:55:55;3.37;;;1.60;;
7306;SDS011;3694;48.732;9.248;2023-07-31T12:58:21;2.40;;;2.00;;
7306;SDS011;3694;48.732;9.248;2023-07-31T13:00:46;3.97;;;1.90;;
7306;SDS011;3694;48.732;9.248;2023-07-31T13:03:12;2.13;;;1.80;;
7306;SDS011;3694;48.732;9.248;2023-07-31T13:05:38;3.90;;;2.10;;
7306;SDS011;3694;48.732;9.248;2023-07-31T13:08:03;3.17;;;2.00;;
7306;SDS011;3694;48.732;9.248;2023-07-31T13:10:29;2.60;;;1.90;;
7306;SDS011;3694;48.732;9.248;2023-07-31T13:12:55;3.07;;;1.60;;
7306;SDS011;3694;48.732;9.248;2023-07-31T13:15:20;3.30;;;1.60;;
7306;SDS011;3694;48.732;9.248;2023-07-31T13:17:46;2.83;;;1.97;;
7306;SDS011;3694;48.732;9.248;2023-07-31T13:20:12;3.67;;;2.13;;
7306;SDS011;3694;48.732;9.248;2023-07-31T13:22:37;2.70;;;2.13;;
7306;SDS011;3694;48.732;9.248;2023-07-31T13:25:03;3.77;;;1.83;;
7306;SDS011;3694;48.732;9.248;2023-07-31T13:27:30;3.43;;;1.93;;
7306;SDS011;3694;48.732;9.248;2023-07-31T13:29:55;2.53;;;1.80;;
7306;SDS011;3694;48.732;9.248;2023-07-31T13:32:21;3.13;;;1.73;;
7306;SDS011;3694;48.732;9.248;2023-07-31T13:34:47;2.30;;;1.90;;
7306;SDS011;3694;48.732;9.248;2023-07-31T13:37:13;3.27;;;1.80;;
7306;SDS011;3694;48.732;9.248;2023-07-31T13:39:39;4.77;;;2.20;;
7306;SDS011;3694;48.732;9.248;2023-07-31T13:42:05;2.60;;;1.77;;
7306;SDS011;3694;48.732;9.248;2023-07-31T13:44:36;2.40;;;1.70;;
7306;SDS011;3694;48.732;9.248;2023-07-31T13:47:02;4.20;;;2.00;;
7306;SDS011;3694;48.732;9.248;2023-07-31T13:49:28;2.70;;;1.70;;
7306;SDS011;3694;48.732;9.248;2023-07-31T13:51:55;934.70;;;91.50;;
7306;SDS011;3694;48.732;9.248;2023-07-31T13:54:21;206.37;;;98.37;;
7306;SDS011;3694;48.732;9.248;2023-07-31T13:56:47;1428.30;;;710.63;;
7306;SDS011;3694;48.732;9.248;2023-07-31T13:59:13;1999.90;;;999.90;;
7306;SDS011;3694;48.732;9.248;2023-07-31T14:01:40;1999.90;;;999.90;;
7306;SDS011;3694;48.732;9.248;2023-07-31T14:04:05;1999.90;;;999.90;;
7306;SDS011;3694;48.732;9.248;2023-07-31T14:06:31;1999.90;;;999.90;;
7306;SDS011;3694;48.732;9.248;2023-07-31T14:08:56;1999.90;;;999.90;;
7306;SDS011;3694;48.732;9.248;2023-07-31T14:11:22;1999.90;;;999.90;;
7306;SDS011;3694;48.732;9.248;2023-07-31T14:13:49;1999.90;;;999.90;;
7306;SDS011;3694;48.732;9.248;2023-07-31T14:16:15;1999.90;;;999.90;;
7306;SDS011;3694;48.732;9.248;2023-07-31T14:18:41;1999.90;;;999.90;;
7306;SDS011;3694;48.732;9.248;2023-07-31T14:21:06;1999.90;;;999.90;;
7306;SDS011;3694;48.732;9.248;2023-07-31T14:23:33;1999.90;;;999.90;;
7306;SDS011;3694;48.732;9.248;2023-07-31T14:25:59;1999.90;;;999.90;;
7306;SDS011;3694;48.732;9.248;2023-07-31T14:28:24;1999.90;;;999.90;;
7306;SDS011;3694;48.732;9.248;2023-07-31T14:30:50;1999.90;;;999.90;;
7306;SDS011;3694;48.732;9.248;2023-07-31T14:33:16;1999.90;;;999.90;;
7306;SDS011;3694;48.732;9.248;2023-07-31T14:35:41;1999.90;;;999.90;;
7306;SDS011;3694;48.732;9.248;2023-07-31T14:38:07;1999.90;;;999.90;;
7306;SDS011;3694;48.732;9.248;2023-07-31T14:40:32;1999.90;;;999.90;;
7306;SDS011;3694;48.732;9.248;2023-07-31T14:42:58;1999.90;;;999.90;;
7306;SDS011;3694;48.732;9.248;2023-07-31T14:45:23;1999.90;;;999.90;;
7306;SDS011;3694;48.732;9.248;2023-07-31T14:47:49;1999.90;;;999.90;;
7306;SDS011;3694;48.732;9.248;2023-07-31T14:50:15;1999.90;;;999.90;;
7306;SDS011;3694;48.732;9.248;2023-07-31T14:52:40;1999.90;;;999.90;;
7306;SDS011;3694;48.732;9.248;2023-07-31T14:55:06;1999.90;;;999.90;;
7306;SDS011;3694;48.732;9.248;2023-07-31T14:57:33;1999.90;;;999.90;;
7306;SDS011;3694;48.732;9.248;2023-07-31T14:59:59;1999.90;;;999.90;;
7306;SDS011;3694;48.732;9.248;2023-07-31T15:02:25;1999.90;;;999.90;;
7306;SDS011;3694;48.732;9.248;2023-07-31T15:04:51;1999.90;;;999.90;;
7306;SDS011;3694;48.732;9.248;2023-07-31T15:07:17;1999.90;;;999.90;;
7306;SDS011;3694;48.732;9.248;2023-07-31T15:09:42;1999.90;;;999.90;;
7306;SDS011;3694;48.732;9.248;2023-07-31T15:12:08;1999.90;;;999.90;;
7306;SDS011;3694;48.732;9.248;2023-07-31T15:14:34;1999.90;;;999.90;;
7306;SDS011;3694;48.732;9.248;2023-07-31T15:16:59;1999.90;;;999.90;;
7306;SDS011;3694;48.732;9.248;2023-07-31T15:19:25;1999.90;;;999.90;;
7306;SDS011;3694;48.732;9.248;2023-07-31T15:21:50;1999.90;;;999.90;;
7306;SDS011;3694;48.732;9.248;2023-07-31T15:24:16;1999.90;;;999.90;;
7306;SDS011;3694;48.732;9.248;2023-07-31T15:26:42;1999.90;;;999.90;;